Columbiaville, Michigan
Current Conditions -  °F | °C
As of 7:14 AM on Friday 24 Oct 2014 (Local Time) from KD95 Reporting Station
Clear Clear  
Wind Chill: 32°   Ceiling: Unl
Heat Index: 32°   Visibility: 7mi
Dew Point: 31°   Wind: 0mph
Humidity: 98%   Direction: NA
Pressure: 30.07"   Gusts: NA
Location:  43.16°N, 83.41°W
Report Text: KD95 241114Z AUTO 00000KT 7SM CLR 00/00 A3007 RMK AO2 T10011004
Loading
Personal Weather Stations






























Interactive Weather Map New forecast layout! Learn more

10-Day Weather Forecast

Advertisements
Track Severe Weather on mobile